Butler, Ohio
Current Conditions -  °F | °C
As of 2:52 AM on Thursday 18 Dec 2014 (Local Time) from KMFD Reporting Station
Overcast Overcast  
Wind Chill: 17°   Ceiling: 1600
Heat Index: 26°   Visibility: 10mi
Dew Point: 20°   Wind: 9mph
Humidity: 78%   Direction: 290°WNW
Pressure: 30.19"   Gusts: 17mph
Location:  40.59°N, 82.42°W
Report Text: KMFD 180752Z 29008G15KT 10SM OVC016 M03/M07 A3019 RMK AO2 SLP240 T10331067
Loading
Personal Weather Stations






























Interactive Weather Map New forecast layout! Learn more

10-Day Weather Forecast

Advertisements
Track Severe Weather on mobile